Oquaga Lake, New York
Current Conditions -  °F | °C
As of 7:30 AM on Friday 28 Nov 2014 (Local Time) from KBGM Reporting Station
Light Snow Light Snow  
Wind Chill: 22°   Ceiling: 3400
Heat Index: 32°   Visibility: 3mi
Dew Point: 18°   Wind: 14mph
Humidity: 56%   Direction: 310°NW
Pressure: 30.11"   Gusts: 23mph
Location:  42.0783°N, 75.4419°W
Report Text: KBGM 281230Z 31012G20KT 3SM -SN FEW007 SCT013 OVC034 00/M08 A3011 RMK AO2 P0000 T00001078
Loading
Personal Weather Stations






























Interactive Weather Map New forecast layout! Learn more

10-Day Weather Forecast

Advertisements
Track Severe Weather on mobile